Time;durP1;ratioP1;P1;durP2;ratioP2;P2;SDS_P1;SDS_P2;PMS_P1;PMS_P2;Temp;Humidity;BMP_temperature;BMP_pressure;BME280_temperature;BME280_humidity;BME280_pressure;Samples;Min_cycle;Max_cycle;Signal;HPM_P1;HPM_P2
2022/08/28 00:00:14;;;;;;;6.25;5.22;;;;;;;19.22;66.85;98864.22;4938649;29;20074;-69
2022/08/28 00:02:41;;;;;;;4.40;4.10;;;;;;;19.15;67.33;98880.47;4947943;28;20134;-69
2022/08/28 00:05:10;;;;;;;3.88;3.58;;;;;;;19.11;67.46;98875.88;4936792;29;20412;-69
2022/08/28 00:07:37;;;;;;;3.50;3.25;;;;;;;19.11;67.72;98878.53;4919454;29;20050;-70
2022/08/28 00:10:06;;;;;;;3.08;2.80;;;;;;;19.11;67.60;98879.34;4936617;29;20138;-69
2022/08/28 00:12:33;;;;;;;3.05;2.85;;;;;;;19.11;67.79;98876.66;4919408;29;20435;-69
2022/08/28 00:15:00;;;;;;;2.83;2.58;;;;;;;19.14;67.58;98881.50;4936309;29;20058;-69
2022/08/28 00:17:26;;;;;;;2.63;2.42;;;;;;;19.15;67.59;98880.47;4919141;29;20039;-67
2022/08/28 00:19:53;;;;;;;3.20;3.00;;;;;;;19.14;67.63;98881.50;4919014;29;20051;-69
2022/08/28 00:22:19;;;;;;;3.33;3.00;;;;;;;19.09;67.72;98884.13;4936035;29;20052;-69
2022/08/28 00:24:46;;;;;;;3.40;3.20;;;;;;;19.07;67.74;98883.56;4919303;29;20066;-69
2022/08/28 00:29:58;;;;;;;3.15;2.95;;;;;;;19.00;67.45;98877.56;4936054;29;20059;-69
2022/08/28 00:32:25;;;;;;;3.75;3.42;;;;;;;18.96;67.69;98871.09;4935784;29;20040;-68
2022/08/28 00:34:52;;;;;;;3.22;3.03;;;;;;;18.93;67.66;98874.25;4927598;29;20052;-69
2022/08/28 00:37:19;;;;;;;3.30;3.10;;;;;;;18.88;67.96;98879.53;4954882;29;20055;-69
2022/08/28 00:39:50;;;;;;;2.65;2.45;;;;;;;18.90;67.94;98880.91;4955019;28;20110;-70
2022/08/28 00:42:17;;;;;;;3.15;2.85;;;;;;;18.95;68.41;98877.50;4957471;28;20047;-69
2022/08/28 00:44:44;;;;;;;2.97;2.78;;;;;;;18.98;68.00;98877.00;4958264;28;20043;-70
2022/08/28 00:47:11;;;;;;;2.65;2.45;;;;;;;18.96;67.83;98885.28;4940287;29;20047;-69
2022/08/28 00:49:46;;;;;;;2.50;2.30;;;;;;;18.94;68.14;98883.88;4955295;29;20054;-69
2022/08/28 00:52:14;;;;;;;2.97;2.78;;;;;;;18.90;68.24;98885.44;4955094;28;20065;-69
2022/08/28 00:54:49;;;;;;;2.83;2.63;;;;;;;18.86;68.26;98878.94;4954962;29;20051;-67
2022/08/28 00:57:33;;;;;;;2.60;2.37;;;;;;;18.84;68.14;98879.19;4937459;29;20048;-68
2022/08/28 01:00:00;;;;;;;2.50;2.30;;;;;;;18.84;68.54;98879.19;4955061;28;20043;-68
2022/08/28 01:02:27;;;;;;;2.30;2.20;;;;;;;18.87;68.40;98883.28;4931955;29;20487;-68
2022/08/28 01:04:54;;;;;;;3.30;3.10;;;;;;;18.89;68.25;98881.16;4944807;29;20455;-68
2022/08/28 01:07:22;;;;;;;3.20;2.97;;;;;;;18.89;68.06;98889.19;4956117;28;20058;-69
2022/08/28 01:09:52;;;;;;;3.40;3.10;;;;;;;18.87;68.67;98886.75;4954997;29;20101;-68
2022/08/28 01:12:26;;;;;;;3.05;2.85;;;;;;;18.87;68.59;98896.66;4937867;28;20468;-68
2022/08/28 01:14:58;;;;;;;2.97;2.78;;;;;;;18.85;68.41;98891.53;4937769;29;20099;-68
2022/08/28 01:17:30;;;;;;;2.85;2.65;;;;;;;18.86;68.72;98895.84;4937773;29;20050;-69
2022/08/28 01:20:05;;;;;;;2.55;2.35;;;;;;;18.88;68.60;98895.59;4937493;29;20047;-68
2022/08/28 01:22:39;;;;;;;3.03;2.55;;;;;;;18.91;68.99;98898.59;4937888;28;20051;-68
2022/08/28 01:25:13;;;;;;;3.20;2.42;;;;;;;18.95;68.74;98899.75;4922319;29;20496;-69
2022/08/28 01:27:43;;;;;;;2.00;1.90;;;;;;;18.95;68.51;98894.38;4937414;29;20515;-68
2022/08/28 01:30:13;;;;;;;2.35;2.20;;;;;;;18.96;68.32;98893.31;4954965;29;20102;-69
2022/08/28 01:32:46;;;;;;;2.53;2.33;;;;;;;18.97;68.40;98894.94;4929636;29;20047;-68
2022/08/28 01:35:18;;;;;;;2.28;2.13;;;;;;;19.01;68.47;98892.56;4935900;29;20043;-68
2022/08/28 01:37:45;;;;;;;1.98;1.88;;;;;;;19.02;68.76;98886.16;4935085;29;20055;-68
2022/08/28 01:40:19;;;;;;;2.00;1.90;;;;;;;19.03;68.41;98880.56;4935808;29;20051;-67
2022/08/28 01:42:45;;;;;;;1.98;1.88;;;;;;;19.07;68.74;98877.41;4935379;29;20567;-71
2022/08/28 01:45:15;;;;;;;2.40;2.25;;;;;;;19.13;68.24;98885.25;4935067;29;20051;-68
2022/08/28 01:47:44;;;;;;;2.60;2.40;;;;;;;19.17;68.46;98885.59;4934804;29;20487;-67
2022/08/28 01:50:19;;;;;;;2.78;2.58;;;;;;;19.20;68.05;98883.22;4917802;29;20082;-67
2022/08/28 01:52:46;;;;;;;2.00;1.90;;;;;;;19.23;67.62;98877.38;4934768;29;20084;-70
2022/08/28 01:55:12;;;;;;;2.10;2.00;;;;;;;19.24;67.92;98887.03;4917861;29;20047;-68
2022/08/28 01:57:44;;;;;;;1.95;1.80;;;;;;;19.25;68.10;98888.66;4917681;29;20095;-68
2022/08/28 02:00:13;;;;;;;2.85;2.25;;;;;;;19.25;67.82;98883.28;4934859;29;20052;-68
2022/08/28 02:02:40;;;;;;;2.10;2.00;;;;;;;19.24;67.59;98883.53;4934386;29;20048;-68
2022/08/28 02:05:07;;;;;;;2.33;2.13;;;;;;;19.21;67.98;98890.19;4945304;29;20088;-68
2022/08/28 02:07:35;;;;;;;2.30;2.20;;;;;;;19.17;67.98;98883.72;4953568;28;20043;-67
2022/08/28 02:10:03;;;;;;;2.25;2.15;;;;;;;19.14;68.16;98884.19;4936848;29;20048;-68
2022/08/28 02:12:30;;;;;;;2.30;2.17;;;;;;;19.12;68.15;98880.97;4936555;28;20495;-68
2022/08/28 02:14:57;;;;;;;2.13;2.03;;;;;;;19.15;68.59;98880.47;4953881;29;20043;-68
2022/08/28 02:17:23;;;;;;;1.70;1.60;;;;;;;19.18;68.06;98888.00;4953702;29;20039;-68
2022/08/28 02:19:50;;;;;;;2.65;2.45;;;;;;;19.16;68.05;98875.94;4956378;28;20388;-68
2022/08/28 02:22:17;;;;;;;2.53;2.33;;;;;;;19.15;68.24;98875.13;4957726;28;20058;-67
2022/08/28 02:24:44;;;;;;;2.45;2.35;;;;;;;19.15;68.03;98864.41;4957864;29;20051;-68
2022/08/28 02:27:10;;;;;;;2.13;1.98;;;;;;;19.14;68.16;98875.34;4957328;29;20054;-68
2022/08/28 02:29:38;;;;;;;1.80;1.70;;;;;;;19.15;68.19;98877.00;4957348;29;20047;-68
2022/08/28 02:32:05;;;;;;;1.80;1.70;;;;;;;19.15;68.14;98877.00;4954531;28;20047;-68
2022/08/28 02:34:33;;;;;;;1.60;1.50;;;;;;;19.17;68.04;98881.03;4945728;29;20116;-68
2022/08/28 02:36:59;;;;;;;1.77;1.67;;;;;;;19.19;67.97;98878.94;4956160;28;20074;-68
2022/08/28 02:39:26;;;;;;;1.90;1.80;;;;;;;19.24;67.66;98878.19;4957353;29;20062;-68
2022/08/28 02:41:53;;;;;;;2.00;1.90;;;;;;;19.24;67.88;98880.88;4939669;29;20055;-68
2022/08/28 02:44:20;;;;;;;1.90;1.80;;;;;;;19.25;67.85;98877.13;4939784;29;20051;-68
2022/08/28 02:46:46;;;;;;;1.80;1.70;;;;;;;19.28;68.05;98876.63;4956979;29;20101;-68
2022/08/28 02:49:13;;;;;;;2.47;2.30;;;;;;;19.32;67.93;98876.94;4956973;28;20043;-68
2022/08/28 02:51:41;;;;;;;2.40;2.20;;;;;;;19.35;67.82;98873.75;4939774;29;20047;-68
2022/08/28 02:54:07;;;;;;;2.95;2.75;;;;;;;19.35;67.54;98871.06;4957118;29;20039;-68
2022/08/28 02:56:34;;;;;;;2.72;2.53;;;;;;;19.35;67.48;98871.91;4956656;28;20050;-68
2022/08/28 02:59:00;;;;;;;2.35;2.25;;;;;;;19.35;67.42;98868.41;4957023;29;20043;-68
2022/08/28 03:01:27;;;;;;;1.98;1.88;;;;;;;19.37;67.76;98868.97;4939582;28;20348;-68
2022/08/28 03:03:53;;;;;;;1.80;1.70;;;;;;;19.40;68.05;98860.44;4948018;29;20040;-68
2022/08/28 03:06:21;;;;;;;1.60;1.50;;;;;;;19.42;67.83;98864.47;4950385;29;20067;-68
2022/08/28 03:08:48;;;;;;;1.85;1.73;;;;;;;19.43;67.56;98860.75;4956617;28;20539;-68
2022/08/28 03:11:14;;;;;;;1.80;1.70;;;;;;;19.48;67.46;98863.50;4957016;28;20047;-68
2022/08/28 03:13:41;;;;;;;3.10;2.85;;;;;;;19.49;67.06;98862.44;4940801;29;20058;-68
2022/08/28 03:16:07;;;;;;;3.53;3.20;;;;;;;19.44;67.21;98861.56;4939657;29;20047;-68
2022/08/28 03:18:34;;;;;;;2.65;2.55;;;;;;;19.40;67.68;98865.81;4939786;29;20146;-68
2022/08/28 03:21:00;;;;;;;2.92;2.72;;;;;;;19.40;67.84;98863.13;4956704;29;20051;-69
2022/08/28 03:23:27;;;;;;;2.30;2.10;;;;;;;19.42;67.77;98869.84;4956711;28;20519;-68
2022/08/28 03:26:13;;;;;;;2.50;2.30;;;;;;;19.46;67.91;98862.13;4956709;29;20140;-68
2022/08/28 03:28:46;;;;;;;2.10;1.92;;;;;;;19.43;67.83;98857.25;4940643;29;20518;-68
2022/08/28 03:31:16;;;;;;;2.20;2.10;;;;;;;19.40;67.49;98857.75;4957396;28;20051;-68
2022/08/28 03:33:44;;;;;;;2.20;2.08;;;;;;;19.37;67.99;98855.56;4949533;29;20468;-68
2022/08/28 03:36:14;;;;;;;2.58;2.38;;;;;;;19.35;67.95;98860.34;4949820;28;20058;-69
2022/08/28 03:38:41;;;;;;;2.15;2.05;;;;;;;19.29;67.93;98857.63;4957186;29;20054;-67
2022/08/28 03:41:13;;;;;;;2.15;2.05;;;;;;;19.26;68.21;98865.34;4956527;28;20043;-67
2022/08/28 03:43:40;;;;;;;3.03;2.83;;;;;;;19.23;68.48;98861.28;4939151;29;20055;-68
2022/08/28 03:46:11;;;;;;;2.40;2.20;;;;;;;19.23;68.34;98865.84;4956055;28;20058;-67
2022/08/28 03:48:37;;;;;;;2.92;2.20;;;;;;;19.21;68.58;98862.59;4956343;28;20039;-68
2022/08/28 03:51:15;;;;;;;1.90;1.80;;;;;;;19.22;68.41;98873.06;4939156;29;20089;-69
2022/08/28 03:53:44;;;;;;;2.40;2.28;;;;;;;19.23;68.57;98872.03;4956478;29;20126;-68
2022/08/28 03:56:14;;;;;;;1.88;1.77;;;;;;;19.22;68.42;98878.41;4955972;29;20124;-68
2022/08/28 03:58:42;;;;;;;2.10;2.00;;;;;;;19.23;68.27;98879.25;4939345;29;20522;-68
2022/08/28 04:01:09;;;;;;;2.25;2.15;;;;;;;19.21;68.48;98881.34;5410218;23;20039;31
2022/08/28 04:03:36;;;;;;;2.10;2.00;;;;;;;19.20;68.46;98877.06;4926122;29;20043;-69
2022/08/28 04:06:03;;;;;;;2.33;2.13;;;;;;;19.19;68.49;98883.47;4916848;29;20052;-69
2022/08/28 04:08:29;;;;;;;2.70;2.50;;;;;;;19.16;68.44;98876.72;4931742;29;20057;-69
2022/08/28 04:11:00;;;;;;;2.03;1.92;;;;;;;19.16;68.62;98884.78;4936778;29;20044;-69
2022/08/28 04:13:28;;;;;;;2.30;2.10;;;;;;;19.17;68.79;98888.25;4936612;29;20099;-68
2022/08/28 04:16:09;;;;;;;1.80;1.70;;;;;;;19.19;68.43;98889.66;4944895;23;20410;-68
2022/08/28 04:18:41;;;;;;;1.85;1.75;;;;;;;19.21;68.81;98889.38;4915964;29;20047;-68
2022/08/28 04:21:26;;;;;;;1.90;1.80;;;;;;;19.25;68.49;98890.53;4920690;29;20075;-68
2022/08/28 04:23:54;;;;;;;1.63;1.52;;;;;;;19.29;68.11;98897.81;4919226;29;20047;-68
2022/08/28 04:26:24;;;;;;;1.70;1.60;;;;;;;19.30;68.60;98902.09;4918800;29;20043;-68
2022/08/28 04:28:51;;;;;;;1.75;1.65;;;;;;;19.29;68.26;98897.00;4935930;29;20054;-68
2022/08/28 04:31:20;;;;;;;1.70;1.60;;;;;;;19.29;68.37;98897.81;4918840;29;20063;-68
2022/08/28 04:34:03;;;;;;;1.65;1.55;;;;;;;19.30;68.33;98901.31;4925760;29;20047;-68
2022/08/28 04:36:32;;;;;;;1.77;1.67;;;;;;;19.32;68.48;98903.75;4930635;29;20122;-68
2022/08/28 04:38:59;;;;;;;1.73;1.63;;;;;;;19.35;68.33;98895.19;4918966;29;20055;-68
2022/08/28 04:41:27;;;;;;;2.55;1.80;;;;;;;19.38;68.13;98892.84;4935369;29;20087;-67
2022/08/28 04:43:56;;;;;;;1.80;1.70;;;;;;;19.40;68.48;98893.41;4935784;29;20047;-67
2022/08/28 04:46:23;;;;;;;1.75;1.65;;;;;;;19.43;68.62;98892.09;4935405;29;20043;-68
2022/08/28 04:48:49;;;;;;;1.40;1.30;;;;;;;19.49;68.39;98899.16;4935517;29;20048;-68
2022/08/28 04:51:16;;;;;;;1.60;1.50;;;;;;;19.54;68.80;98907.25;4935891;29;20051;-68
2022/08/28 04:53:43;;;;;;;2.42;2.10;;;;;;;19.56;67.79;98905.16;4935541;29;20393;-68
2022/08/28 04:56:11;;;;;;;1.90;1.80;;;;;;;19.55;67.80;98900.84;4935133;29;20055;-68
2022/08/28 04:58:40;;;;;;;2.00;1.90;;;;;;;19.54;67.59;98910.75;4935323;29;20399;-68
2022/08/28 05:01:11;;;;;;;1.77;1.67;;;;;;;19.52;67.65;98910.19;4935436;29;20088;-68
2022/08/28 05:03:38;;;;;;;1.40;1.30;;;;;;;19.55;67.48;98916.91;4927774;29;20127;-68
2022/08/28 05:06:06;;;;;;;1.52;1.42;;;;;;;19.60;67.66;98917.00;4909981;29;20055;-68
2022/08/28 05:08:32;;;;;;;1.70;1.60;;;;;;;19.62;66.92;98917.59;4918275;29;20066;-67
2022/08/28 05:11:13;;;;;;;1.77;1.67;;;;;;;19.61;67.20;98920.50;4918195;29;20047;-67
2022/08/28 05:14:03;;;;;;;2.25;2.05;;;;;;;19.59;66.56;98914.56;4935229;29;20567;-68
2022/08/28 05:16:29;;;;;;;2.55;2.35;;;;;;;19.58;66.49;98920.97;4934833;29;20048;-68
2022/08/28 05:19:00;;;;;;;2.78;2.58;;;;;;;19.58;66.59;98921.78;4918117;29;20047;-68
2022/08/28 05:21:27;;;;;;;2.83;2.63;;;;;;;19.59;65.92;98923.41;4935280;29;20063;-68
2022/08/28 05:23:56;;;;;;;3.97;3.05;;;;;;;19.59;65.96;98930.66;4935036;29;20046;-68
2022/08/28 05:26:23;;;;;;;2.65;2.45;;;;;;;19.59;65.67;98928.78;4934656;29;20101;-68
2022/08/28 05:28:55;;;;;;;2.75;2.55;;;;;;;19.59;65.73;98931.44;4935156;29;20051;-68
2022/08/28 05:31:23;;;;;;;2.17;1.98;;;;;;;19.61;65.45;98936.59;4935327;29;20066;-68
2022/08/28 05:33:51;;;;;;;2.65;2.15;;;;;;;19.66;65.54;98929.44;4926098;29;20063;-67
2022/08/28 05:36:20;;;;;;;2.60;2.40;;;;;;;19.73;65.38;98931.94;4911051;29;20047;-68
2022/08/28 05:38:48;;;;;;;2.30;2.10;;;;;;;19.77;65.07;98935.75;4917776;29;20058;-68
2022/08/28 05:41:23;;;;;;;1.80;1.70;;;;;;;19.84;65.25;98935.56;4917744;29;20060;-68
2022/08/28 05:43:52;;;;;;;2.08;1.98;;;;;;;19.87;64.51;98929.69;4934972;29;20052;-68
2022/08/28 05:46:19;;;;;;;2.90;2.60;;;;;;;19.87;63.89;98941.22;4917457;29;20052;-69
2022/08/28 05:48:48;;;;;;;2.60;2.40;;;;;;;19.87;63.74;98938.56;4917804;29;20040;-68
2022/08/28 05:51:18;;;;;;;3.28;2.80;;;;;;;19.91;63.80;98937.00;4934626;29;20103;-68
2022/08/28 05:53:48;;;;;;;4.25;2.70;;;;;;;19.95;63.40;98932.75;4935704;29;20461;-70
2022/08/28 05:56:20;;;;;;;2.58;2.38;;;;;;;19.97;63.33;98945.94;4938428;29;20468;-69
2022/08/28 05:58:46;;;;;;;3.55;2.65;;;;;;;19.99;63.02;98941.13;4921719;29;20054;-68
2022/08/28 06:01:16;;;;;;;2.75;2.25;;;;;;;20.00;62.74;98942.72;4938625;29;20047;-69
2022/08/28 06:03:49;;;;;;;3.72;2.50;;;;;;;20.02;62.57;98940.63;4929189;29;20062;-68
2022/08/28 06:06:16;;;;;;;2.40;2.20;;;;;;;20.06;62.55;98939.06;4914758;29;20051;-68
2022/08/28 06:08:42;;;;;;;3.47;2.30;;;;;;;20.13;62.46;98944.25;4922158;29;20059;-68
2022/08/28 06:11:28;;;;;;;2.60;2.40;;;;;;;20.20;62.10;98950.19;4938639;29;20047;-69
2022/08/28 06:14:00;;;;;;;2.85;2.45;;;;;;;20.17;61.65;98946.16;4921950;29;20043;-69
2022/08/28 06:16:30;;;;;;;2.67;2.47;;;;;;;20.17;61.66;98951.53;4938076;29;20047;-70
2022/08/28 06:18:57;;;;;;;2.30;2.08;;;;;;;20.18;62.15;98947.78;4938440;29;20043;-70
2022/08/28 06:21:23;;;;;;;3.10;2.40;;;;;;;20.17;61.12;98954.22;4938840;29;20122;-67
2022/08/28 06:23:50;;;;;;;3.00;2.22;;;;;;;20.17;61.29;98958.78;4938932;29;20074;-68
2022/08/28 06:26:17;;;;;;;2.58;2.35;;;;;;;20.22;61.54;98951.59;4938476;29;20048;-68
2022/08/28 06:28:44;;;;;;;2.55;2.28;;;;;;;20.26;61.18;98952.69;4938255;29;20055;-68
2022/08/28 06:31:10;;;;;;;3.45;2.95;;;;;;;20.16;60.93;98954.44;4938435;29;20131;-68
2022/08/28 06:33:53;;;;;;;3.13;2.83;;;;;;;20.18;61.03;98958.50;4930169;29;20106;-68
2022/08/28 06:36:21;;;;;;;4.28;2.90;;;;;;;20.19;60.99;98959.31;4934831;29;20627;-68
2022/08/28 06:38:48;;;;;;;2.63;2.42;;;;;;;20.24;60.97;98962.88;4938378;29;20059;-69
2022/08/28 06:41:15;;;;;;;3.80;3.45;;;;;;;20.33;60.65;98970.47;4921245;29;20048;-69
2022/08/28 06:43:42;;;;;;;4.00;3.28;;;;;;;20.38;60.67;98971.34;4937910;29;20056;-68
2022/08/28 06:46:08;;;;;;;3.70;3.00;;;;;;;20.48;60.52;98970.63;4937601;29;20051;-68
2022/08/28 06:48:35;;;;;;;3.60;3.25;;;;;;;20.56;60.52;98969.41;4920774;29;20103;-68
2022/08/28 06:51:05;;;;;;;3.90;3.50;;;;;;;20.64;60.31;98972.44;4937753;29;20047;-68
2022/08/28 06:53:32;;;;;;;3.83;3.53;;;;;;;20.77;60.55;98976.59;4937785;29;20047;-68
2022/08/28 06:56:01;;;;;;;4.60;3.95;;;;;;;20.91;59.81;98975.13;4938059;29;20055;-69
2022/08/28 06:58:27;;;;;;;4.65;3.13;;;;;;;20.91;59.09;98974.31;4937826;29;20385;-69
2022/08/28 07:01:02;;;;;;;6.50;3.42;;;;;;;20.89;58.89;98979.13;4905040;29;20048;-67
2022/08/28 07:03:29;;;;;;;8.07;6.80;;;;;;;20.87;58.95;98978.56;4933389;29;20052;-69
2022/08/28 07:05:57;;;;;;;7.47;5.55;;;;;;;20.89;58.62;98979.13;4933221;29;20058;-68
2022/08/28 07:08:26;;;;;;;7.57;4.50;;;;;;;20.95;58.69;98975.44;4938850;29;20054;-68
2022/08/28 07:10:53;;;;;;;5.45;3.00;;;;;;;21.03;58.62;98977.63;4937537;29;20081;-68
2022/08/28 07:13:21;;;;;;;3.53;2.95;;;;;;;21.12;58.03;98983.34;4920900;29;20056;-68
2022/08/28 07:15:47;;;;;;;5.82;3.30;;;;;;;21.11;57.98;98993.28;4937426;29;20058;-69
2022/08/28 07:18:14;;;;;;;6.25;3.20;;;;;;;21.11;57.99;98981.75;4937040;29;20044;-69
2022/08/28 07:20:41;;;;;;;4.40;2.60;;;;;;;21.16;58.01;98982.56;4937139;29;20048;-69
2022/08/28 07:23:07;;;;;;;4.32;2.85;;;;;;;21.25;57.94;98982.91;4937242;29;20044;-69
2022/08/28 07:25:39;;;;;;;4.57;2.90;;;;;;;21.31;57.54;98987.28;4937410;29;20053;-69
2022/08/28 07:28:06;;;;;;;3.00;2.70;;;;;;;21.35;57.59;98987.56;4920260;29;20074;-70
2022/08/28 07:30:33;;;;;;;3.53;2.60;;;;;;;21.30;57.68;98993.69;4920104;29;20048;-68
2022/08/28 07:32:59;;;;;;;5.88;2.53;;;;;;;21.19;57.24;98998.19;4929092;29;20044;-68
2022/08/28 07:35:26;;;;;;;3.67;2.22;;;;;;;21.16;57.91;98998.72;4919728;29;20040;-68
2022/08/28 07:37:52;;;;;;;4.55;2.58;;;;;;;21.20;57.81;98994.44;4936594;29;20040;-68
2022/08/28 07:40:21;;;;;;;3.28;2.15;;;;;;;21.19;57.24;98995.50;4920097;29;20043;-68
2022/08/28 07:45:34;;;;;;;3.63;2.40;;;;;;;21.01;57.25;99010.13;4936745;29;20044;-69
2022/08/28 07:48:07;;;;;;;3.38;2.20;;;;;;;20.89;57.70;98997.94;4936481;29;20048;-69
2022/08/28 07:50:37;;;;;;;3.40;2.08;;;;;;;20.87;57.80;99011.63;4919859;29;20047;-69
2022/08/28 07:53:06;;;;;;;3.15;2.28;;;;;;;20.85;57.81;99012.94;4936617;29;20047;-68
2022/08/28 07:55:33;;;;;;;2.35;2.10;;;;;;;20.85;57.68;99016.44;4936560;29;20054;-68
2022/08/28 07:58:00;;;;;;;3.85;2.10;;;;;;;20.85;57.92;99015.63;4920496;29;20074;-70
2022/08/28 08:00:27;;;;;;;3.22;2.17;;;;;;;20.92;57.89;99006.28;4936910;29;20058;-69
2022/08/28 08:02:53;;;;;;;6.45;2.75;;;;;;;21.00;57.65;99021.94;4928798;29;20067;-69
2022/08/28 08:05:20;;;;;;;2.83;2.30;;;;;;;21.06;57.87;99025.47;4927551;29;20051;-69
2022/08/28 08:07:46;;;;;;;3.08;1.98;;;;;;;21.14;57.40;99029.59;4936876;29;20048;-69
2022/08/28 08:10:13;;;;;;;2.90;2.58;;;;;;;21.19;57.32;99022.41;4919465;29;20169;-69
2022/08/28 08:12:45;;;;;;;7.55;5.05;;;;;;;21.24;57.04;99027.00;4936315;29;20047;-69
2022/08/28 08:15:12;;;;;;;3.95;2.97;;;;;;;21.31;56.93;99022.22;4936391;29;20052;-68
2022/08/28 08:17:39;;;;;;;5.28;2.85;;;;;;;21.39;56.60;99021.78;4934964;29;20040;-68
2022/08/28 08:20:07;;;;;;;5.35;2.70;;;;;;;21.46;56.61;99019.66;4919224;29;20062;-68
2022/08/28 08:22:34;;;;;;;4.18;2.45;;;;;;;21.49;56.25;99027.22;4936217;29;20412;-68
2022/08/28 08:25:04;;;;;;;2.83;1.90;;;;;;;21.55;56.22;99025.34;4936442;29;20492;-68
2022/08/28 08:27:34;;;;;;;3.47;2.03;;;;;;;21.66;55.94;99020.88;4936015;29;20051;-68
2022/08/28 08:30:07;;;;;;;3.10;2.30;;;;;;;21.72;55.63;99023.34;4936328;29;20048;-68
2022/08/28 08:32:33;;;;;;;3.17;2.03;;;;;;;21.80;55.68;99035.50;4912808;29;20504;-69
2022/08/28 08:35:00;;;;;;;3.50;2.08;;;;;;;21.93;55.45;99032.34;4927380;29;20040;-69
2022/08/28 08:37:27;;;;;;;2.42;1.90;;;;;;;22.09;55.01;99027.03;4935900;29;20051;-69
2022/08/28 08:39:53;;;;;;;3.15;2.00;;;;;;;22.25;54.75;99031.44;4935760;29;20134;-69
2022/08/28 08:42:26;;;;;;;4.28;2.40;;;;;;;22.33;54.11;99030.09;4935726;29;20114;-68
2022/08/28 08:44:56;;;;;;;4.30;2.20;;;;;;;22.36;54.02;99043.84;4936263;29;20086;-67
2022/08/28 08:47:35;;;;;;;8.50;2.30;;;;;;;22.42;54.06;99029.34;4935253;29;20161;-68
2022/08/28 08:50:22;;;;;;;4.28;2.38;;;;;;;22.48;53.55;99040.94;4935524;29;20522;-68
2022/08/28 08:53:45;;;;;;;4.40;1.90;;;;;;;22.37;53.41;99034.72;4918616;29;20054;-69
2022/08/28 08:56:15;;;;;;;4.88;1.98;;;;;;;22.41;53.72;99040.38;4914134;29;20079;-68
2022/08/28 08:58:48;;;;;;;3.30;2.20;;;;;;;22.48;53.41;99041.75;4898758;29;20052;-68
2022/08/28 09:01:38;;;;;;;3.40;2.25;;;;;;;22.66;53.02;99037.78;4928373;29;20077;-69
2022/08/28 09:04:20;;;;;;;3.65;2.42;;;;;;;22.89;52.91;99039.16;4907688;29;20127;-69
2022/08/28 09:06:51;;;;;;;5.13;3.72;;;;;;;23.11;52.66;99054.31;4932301;29;20130;-68
2022/08/28 09:09:36;;;;;;;5.10;2.95;;;;;;;23.26;52.24;99048.91;4935467;29;20044;-68
2022/08/28 09:12:06;;;;;;;4.38;2.70;;;;;;;23.46;51.72;99043.53;4935667;29;20496;-69
2022/08/28 09:14:40;;;;;;;3.65;2.42;;;;;;;23.65;51.13;99034.88;4935594;29;20059;-69
2022/08/28 09:17:09;;;;;;;3.42;2.40;;;;;;;23.79;50.77;99043.25;4918256;29;20205;-69
2022/08/28 09:19:35;;;;;;;3.15;2.45;;;;;;;23.91;50.70;99044.56;4918998;29;20056;-69
2022/08/28 09:22:02;;;;;;;4.45;2.58;;;;;;;23.97;49.93;99046.19;4918550;29;20066;-69
2022/08/28 09:24:32;;;;;;;2.85;2.47;;;;;;;24.13;49.58;99038.03;4935335;29;20047;-67
2022/08/28 09:27:23;;;;;;;2.88;2.25;;;;;;;24.16;48.60;99042.84;4933914;29;20044;-69
2022/08/28 09:30:01;;;;;;;4.72;2.78;;;;;;;24.14;48.57;99045.84;4935182;29;20484;-69
2022/08/28 09:32:42;;;;;;;4.38;2.38;;;;;;;24.26;48.44;99044.72;4928458;29;20048;-68
2022/08/28 09:35:24;;;;;;;2.65;2.05;;;;;;;24.44;48.64;99036.81;4899314;29;20500;-70
2022/08/28 09:37:51;;;;;;;2.60;2.00;;;;;;;24.65;48.66;99039.41;4915871;29;20051;-69
2022/08/28 09:43:27;;;;;;;3.60;2.17;;;;;;;24.71;47.51;99041.03;4915906;29;20048;-68
2022/08/28 09:46:04;;;;;;;3.88;1.95;;;;;;;24.68;47.44;99039.69;4898994;29;20500;-68
2022/08/28 09:48:38;;;;;;;3.33;2.03;;;;;;;24.70;47.69;99034.81;4915769;29;20132;-68
2022/08/28 09:51:24;;;;;;;4.38;2.28;;;;;;;24.73;47.14;99036.13;4915899;29;20044;-67
2022/08/28 09:53:51;;;;;;;2.80;1.65;;;;;;;24.79;47.32;99040.44;4899151;29;20062;-68
2022/08/28 09:56:26;;;;;;;3.28;2.10;;;;;;;24.87;47.30;99036.34;4915666;29;20054;-68
2022/08/28 09:58:59;;;;;;;2.97;1.80;;;;;;;25.04;46.95;99039.44;4915913;29;20040;-69
2022/08/28 10:01:49;;;;;;;3.08;2.38;;;;;;;25.10;46.39;99032.94;4915963;29;20048;-70
2022/08/28 10:04:40;;;;;;;3.55;2.00;;;;;;;25.16;45.91;99028.31;4900617;29;20048;-70
2022/08/28 10:07:21;;;;;;;4.35;2.67;;;;;;;25.10;45.82;99041.03;4917905;29;20055;-70
2022/08/28 10:10:25;;;;;;;3.80;1.95;;;;;;;25.10;45.83;99032.13;4935354;29;20048;-68
2022/08/28 10:12:58;;;;;;;3.63;2.25;;;;;;;25.18;46.30;99026.91;4936182;29;20508;-70
2022/08/28 10:15:30;;;;;;;4.05;2.33;;;;;;;25.28;46.04;99027.94;4935733;29;20047;-69
2022/08/28 10:18:32;;;;;;;3.33;1.98;;;;;;;25.27;45.18;99029.00;4936762;29;20056;-71
2022/08/28 10:21:13;;;;;;;3.28;2.00;;;;;;;25.27;45.68;99023.59;4936029;29;20044;-69
2022/08/28 10:23:56;;;;;;;5.13;2.22;;;;;;;25.13;45.53;99024.25;4935742;29;20393;-68
2022/08/28 10:26:53;;;;;;;3.00;2.03;;;;;;;25.05;45.62;99024.03;4935360;29;20063;-69
2022/08/28 10:29:29;;;;;;;3.30;2.03;;;;;;;25.15;45.61;99019.38;4917755;29;20048;-69
2022/08/28 10:32:31;;;;;;;5.18;2.53;;;;;;;25.23;44.80;99025.25;4932951;29;20492;-69
2022/08/28 10:35:00;;;;;;;2.58;2.25;;;;;;;25.30;45.21;99015.72;4906024;29;20073;-70
2022/08/28 10:37:54;;;;;;;3.28;2.10;;;;;;;25.39;44.85;99018.63;4935196;29;20051;-71
2022/08/28 10:40:28;;;;;;;2.80;2.00;;;;;;;25.50;44.47;99022.84;4940215;29;20099;-70
2022/08/28 10:43:18;;;;;;;3.85;1.83;;;;;;;25.60;44.85;99020.06;4940836;29;20048;-69
2022/08/28 10:45:48;;;;;;;3.95;2.20;;;;;;;25.73;44.14;99015.88;4922957;29;20044;-69
2022/08/28 10:48:23;;;;;;;2.80;2.20;;;;;;;25.85;43.47;99020.94;4939450;29;20048;-69
2022/08/28 10:51:15;;;;;;;2.60;2.03;;;;;;;25.82;43.47;99018.78;4921259;29;20052;-70
2022/08/28 10:53:53;;;;;;;2.20;1.67;;;;;;;25.92;43.37;99008.66;4921393;29;20047;-70
2022/08/28 10:56:24;;;;;;;2.25;1.92;;;;;;;25.92;43.42;99013.25;4905151;29;20066;-70
2022/08/28 10:58:57;;;;;;;3.38;2.10;;;;;;;25.91;43.04;99014.34;4920957;29;20063;-70
2022/08/28 11:01:31;;;;;;;3.10;2.20;;;;;;;25.84;43.37;99011.16;4921139;29;20044;-69
2022/08/28 11:04:02;;;;;;;1.88;1.60;;;;;;;25.86;43.40;99009.81;4911080;29;20043;-70
2022/08/28 11:06:51;;;;;;;3.10;1.90;;;;;;;25.91;42.76;99007.03;4899843;29;20066;-70
2022/08/28 11:09:41;;;;;;;4.97;2.80;;;;;;;25.81;42.09;99007.16;4938183;29;20051;-69
2022/08/28 11:12:18;;;;;;;3.35;2.10;;;;;;;25.77;42.58;99010.69;4938208;29;20047;-70
2022/08/28 11:14:48;;;;;;;2.72;2.28;;;;;;;25.75;42.91;99005.56;4937666;29;20044;-70
2022/08/28 11:17:21;;;;;;;3.58;2.05;;;;;;;25.88;43.27;99001.38;4936207;29;20086;-70
2022/08/28 11:20:02;;;;;;;3.42;2.35;;;;;;;25.87;42.58;99014.13;4937228;29;20040;-69
2022/08/28 11:22:44;;;;;;;10.25;7.43;;;;;;;25.85;43.13;99010.91;4937110;29;20059;-68
2022/08/28 11:25:13;;;;;;;4.22;3.83;;;;;;;25.93;42.92;99002.16;4937193;29;20044;-69
2022/08/28 11:28:13;;;;;;;2.60;2.40;;;;;;;25.96;42.80;98998.03;4921181;29;20055;-69
2022/08/28 11:30:41;;;;;;;3.20;2.22;;;;;;;26.04;42.55;99007.44;4937052;29;20039;-69
2022/08/28 11:33:43;;;;;;;3.50;1.90;;;;;;;26.04;42.25;99002.00;4929052;29;20048;-69
2022/08/28 11:36:18;;;;;;;2.75;2.13;;;;;;;26.09;42.34;99010.91;4929346;29;20424;-69
2022/08/28 11:38:45;;;;;;;2.83;2.03;;;;;;;26.13;42.39;99009.22;4936918;29;20043;-69
2022/08/28 11:41:19;;;;;;;3.05;1.83;;;;;;;26.12;42.45;99007.59;4919922;29;20054;-69
2022/08/28 11:43:51;;;;;;;2.65;2.28;;;;;;;26.24;42.19;99006.38;4937136;29;20058;-69
2022/08/28 11:46:30;;;;;;;2.50;2.30;;;;;;;26.42;41.67;99009.13;4903674;29;20055;-69
2022/08/28 11:49:26;;;;;;;2.67;1.95;;;;;;;26.42;41.51;99001.00;4919315;29;20472;-69
2022/08/28 11:52:26;;;;;;;3.38;2.17;;;;;;;26.45;41.67;98996.09;4910946;29;20157;-69
2022/08/28 11:55:23;;;;;;;2.95;2.28;;;;;;;26.55;41.16;99002.19;4903834;29;20500;-69
2022/08/28 11:57:59;;;;;;;3.72;2.40;;;;;;;26.58;41.24;99006.25;4903390;29;20056;-69
2022/08/28 12:00:52;;;;;;;3.35;2.20;;;;;;;26.55;41.31;98996.78;4936449;29;20119;-68
2022/08/28 12:03:41;;;;;;;3.25;2.22;;;;;;;26.56;40.95;99013.84;4928485;29;20048;-69